createdAt,value
2017-09-23T00:02:09.590Z,77.80
2017-09-23T00:04:38.650Z,76.40
2017-09-23T00:07:07.158Z,94.43
2017-09-23T00:09:35.454Z,86.77
2017-09-23T00:12:03.752Z,107.93
2017-09-23T00:14:32.090Z,76.70
2017-09-23T00:17:00.386Z,81.50
2017-09-23T00:19:28.727Z,90.27
2017-09-23T00:21:57.051Z,77.30
2017-09-23T00:24:25.346Z,81.30
2017-09-23T00:26:53.771Z,81.43
2017-09-23T00:29:22.082Z,75.67
2017-09-23T00:31:50.376Z,73.67
2017-09-23T00:34:18.702Z,76.63
2017-09-23T00:36:47.028Z,54.33
2017-09-23T00:39:15.351Z,55.63
2017-09-23T00:41:44.402Z,55.53
2017-09-23T00:44:12.731Z,58.90
2017-09-23T00:46:41.021Z,64.13
2017-09-23T00:49:09.343Z,76.17
2017-09-23T00:51:37.695Z,70.90
2017-09-23T00:54:06.828Z,73.07
2017-09-23T00:56:35.922Z,64.13
2017-09-23T00:59:04.316Z,60.07
2017-09-23T01:01:33.441Z,63.33
2017-09-23T01:04:02.825Z,66.97
2017-09-23T01:06:31.128Z,58.97
2017-09-23T01:08:59.419Z,55.63
2017-09-23T01:11:27.738Z,59.73
2017-09-23T01:13:56.155Z,51.17
2017-09-23T01:16:24.452Z,55.97
2017-09-23T01:18:52.770Z,61.20
2017-09-23T01:21:21.062Z,58.93
2017-09-23T01:23:49.403Z,52.23
2017-09-23T01:26:17.700Z,51.27
2017-09-23T01:28:46.000Z,53.43
2017-09-23T01:31:14.360Z,53.97
2017-09-23T01:33:42.678Z,77.43
2017-09-23T01:36:11.129Z,70.00
2017-09-23T01:38:39.540Z,93.17
2017-09-23T01:41:07.928Z,80.17
2017-09-23T01:43:36.312Z,69.03
2017-09-23T01:46:04.667Z,58.10
2017-09-23T01:48:33.069Z,79.10
2017-09-23T01:51:02.170Z,73.37
2017-09-23T01:53:31.324Z,73.67
2017-09-23T01:55:59.692Z,72.73
2017-09-23T01:58:28.067Z,75.37
2017-09-23T02:00:56.475Z,84.97
2017-09-23T02:03:24.872Z,79.70
2017-09-23T02:05:53.271Z,117.90
2017-09-23T02:08:21.703Z,113.10
2017-09-23T02:10:50.057Z,102.77
2017-09-23T02:13:18.388Z,131.47
2017-09-23T02:15:48.367Z,126.10
2017-09-23T02:18:16.994Z,172.03
2017-09-23T02:20:45.319Z,137.10
2017-09-23T02:23:13.633Z,156.00
2017-09-23T02:25:41.975Z,149.20
2017-09-23T02:28:10.280Z,154.93
2017-09-23T02:30:38.587Z,106.67
2017-09-23T02:33:07.677Z,104.47
2017-09-23T02:35:35.980Z,128.17
2017-09-23T02:38:05.076Z,104.87
2017-09-23T02:40:33.709Z,89.33
2017-09-23T02:43:02.040Z,78.20
2017-09-23T02:45:30.332Z,80.33
2017-09-23T02:47:58.652Z,81.70
2017-09-23T02:50:27.714Z,85.77
2017-09-23T02:52:56.050Z,70.40
2017-09-23T02:55:24.370Z,81.63
2017-09-23T02:57:52.665Z,86.03
2017-09-23T03:00:20.988Z,108.93
2017-09-23T03:02:49.290Z,115.83
2017-09-23T03:05:17.574Z,118.73
2017-09-23T03:07:45.903Z,78.57
2017-09-23T03:10:14.223Z,98.50
2017-09-23T03:12:42.549Z,93.50
2017-09-23T03:15:10.899Z,107.47
2017-09-23T03:17:39.191Z,74.47
2017-09-23T03:20:07.496Z,74.43
2017-09-23T03:22:35.805Z,62.97
2017-09-23T03:25:04.104Z,63.87
2017-09-23T03:27:32.416Z,72.63
2017-09-23T03:30:00.746Z,80.77
2017-09-23T03:32:29.051Z,65.97
2017-09-23T03:34:57.344Z,111.37
2017-09-23T03:37:25.663Z,86.97
2017-09-23T03:39:54.729Z,89.03
2017-09-23T03:42:23.050Z,93.73
2017-09-23T03:44:52.130Z,120.73
2017-09-23T03:47:20.451Z,115.27
2017-09-23T03:49:49.515Z,114.57
2017-09-23T03:52:17.939Z,98.40
2017-09-23T03:54:46.235Z,104.47
2017-09-23T03:57:15.311Z,117.43
2017-09-23T03:59:43.641Z,89.10
2017-09-23T04:02:12.731Z,109.07
2017-09-23T04:04:41.051Z,84.40
2017-09-23T04:07:09.358Z,90.70
2017-09-23T04:09:37.651Z,81.80
2017-09-23T04:12:05.970Z,89.17
2017-09-23T04:14:34.262Z,82.83
2017-09-23T04:17:02.691Z,78.43
2017-09-23T04:19:31.754Z,76.13
2017-09-23T04:22:00.065Z,70.03
2017-09-23T04:24:28.672Z,65.47
2017-09-23T04:26:57.727Z,75.50
2017-09-23T04:29:26.063Z,102.80
2017-09-23T04:31:54.358Z,85.37
2017-09-23T04:34:23.750Z,82.33
2017-09-23T04:36:53.126Z,74.03
2017-09-23T04:39:21.424Z,96.73
2017-09-23T04:41:49.735Z,98.03
2017-09-23T04:44:18.022Z,75.03
2017-09-23T04:46:46.355Z,74.30
2017-09-23T04:49:15.414Z,83.40
2017-09-23T04:51:43.958Z,90.50
2017-09-23T04:54:13.017Z,132.73
2017-09-23T04:56:41.333Z,85.17
2017-09-23T04:59:09.623Z,105.30
2017-09-23T05:01:38.722Z,82.17
2017-09-23T05:04:07.015Z,111.07
2017-09-23T05:06:35.357Z,130.67
2017-09-23T05:09:03.660Z,145.00
2017-09-23T05:11:32.044Z,121.50
2017-09-23T05:14:00.427Z,143.43
2017-09-23T05:16:28.755Z,138.80
2017-09-23T05:18:57.145Z,131.90
2017-09-23T05:21:25.540Z,117.60
2017-09-23T05:23:54.699Z,105.23
2017-09-23T05:26:23.089Z,87.27
2017-09-23T05:28:51.499Z,88.63
2017-09-23T05:31:19.912Z,80.40
2017-09-23T05:33:48.273Z,94.17
2017-09-23T05:36:16.610Z,87.33
2017-09-23T05:38:44.995Z,91.50
2017-09-23T05:41:14.111Z,90.83
2017-09-23T05:43:42.485Z,68.93
2017-09-23T05:46:10.904Z,71.83
2017-09-23T05:48:40.979Z,67.90
2017-09-23T05:51:09.274Z,83.10
2017-09-23T05:53:37.559Z,86.60
2017-09-23T05:56:05.899Z,92.27
2017-09-23T05:58:34.247Z,124.67
2017-09-23T06:01:02.701Z,111.23
2017-09-23T06:03:31.005Z,104.90
2017-09-23T06:05:59.350Z,88.03
2017-09-23T06:08:27.702Z,102.97
2017-09-23T06:10:56.016Z,82.73
2017-09-23T06:13:24.307Z,93.23
2017-09-23T06:15:52.648Z,121.97
2017-09-23T06:18:20.988Z,138.00
2017-09-23T06:20:49.318Z,157.77
2017-09-23T06:23:17.620Z,132.23
2017-09-23T06:25:45.987Z,162.17
2017-09-23T06:28:15.098Z,148.00
2017-09-23T06:30:44.184Z,165.50
2017-09-23T06:33:12.572Z,178.53
2017-09-23T06:35:40.991Z,115.63
2017-09-23T06:38:10.100Z,121.10
2017-09-23T06:40:39.233Z,159.10
2017-09-23T06:43:07.557Z,224.20
2017-09-23T06:45:35.924Z,245.00
2017-09-23T06:48:04.245Z,263.70
2017-09-23T06:50:32.565Z,231.23
2017-09-23T06:53:01.866Z,111.93
2017-09-23T06:55:30.178Z,125.73
2017-09-23T06:57:59.236Z,99.53
2017-09-23T07:00:27.616Z,79.93
2017-09-23T07:02:55.948Z,111.63
2017-09-23T07:05:25.103Z,113.53
2017-09-23T07:07:53.418Z,154.87
2017-09-23T07:10:21.724Z,150.63
2017-09-23T07:12:50.865Z,133.07
2017-09-23T07:15:19.240Z,128.93
2017-09-23T07:17:48.396Z,164.63
2017-09-23T07:20:16.735Z,165.20
2017-09-23T07:22:45.831Z,208.40
2017-09-23T07:25:14.196Z,229.63
2017-09-23T07:27:42.512Z,191.63
2017-09-23T07:30:11.602Z,148.10
2017-09-23T07:32:39.973Z,216.83
2017-09-23T07:35:08.279Z,138.73
2017-09-23T07:37:36.595Z,193.93
2017-09-23T07:40:05.731Z,171.03
2017-09-23T07:42:34.032Z,191.37
2017-09-23T07:45:02.336Z,174.40
2017-09-23T07:47:30.713Z,139.27
2017-09-23T07:49:59.022Z,151.03
2017-09-23T07:52:27.339Z,168.10
2017-09-23T07:54:55.676Z,106.07
2017-09-23T07:57:23.979Z,80.67
2017-09-23T07:59:52.335Z,71.77
2017-09-23T08:02:21.441Z,64.73
2017-09-23T08:04:50.503Z,78.73
2017-09-23T08:07:18.852Z,66.13
2017-09-23T08:09:47.157Z,72.13
2017-09-23T08:12:15.459Z,66.37
2017-09-23T08:14:43.863Z,68.03
2017-09-23T08:17:12.167Z,62.77
2017-09-23T08:19:40.538Z,78.30
2017-09-23T08:22:08.836Z,77.33
2017-09-23T08:24:37.664Z,68.00
2017-09-23T08:27:06.287Z,78.70
2017-09-23T08:29:34.599Z,77.63
2017-09-23T08:32:02.953Z,62.60
2017-09-23T08:34:31.261Z,69.30
2017-09-23T08:36:59.578Z,73.17
2017-09-23T08:39:27.942Z,72.07
2017-09-23T08:41:56.238Z,67.30
2017-09-23T08:44:24.525Z,54.17
2017-09-23T08:46:52.975Z,63.93
2017-09-23T08:49:21.270Z,60.57
2017-09-23T08:51:49.570Z,66.53
2017-09-23T08:54:17.930Z,64.23
2017-09-23T08:56:46.990Z,64.10
2017-09-23T08:59:15.348Z,63.53
2017-09-23T09:01:44.416Z,59.37
2017-09-23T09:04:12.716Z,66.37
2017-09-23T09:06:41.151Z,57.17
2017-09-23T09:09:09.451Z,58.60
2017-09-23T09:11:37.811Z,56.10
2017-09-23T09:14:06.110Z,63.60
2017-09-23T09:16:34.416Z,63.93
2017-09-23T09:19:02.733Z,60.67
2017-09-23T09:21:31.027Z,53.07
2017-09-23T09:23:59.373Z,59.30
2017-09-23T09:26:27.683Z,55.37
2017-09-23T09:28:55.971Z,55.80
2017-09-23T09:31:24.270Z,58.70
2017-09-23T09:33:52.556Z,60.20
2017-09-23T09:36:20.906Z,47.87
2017-09-23T09:38:49.205Z,62.70
2017-09-23T09:41:18.299Z,59.53
2017-09-23T09:43:46.703Z,61.83
2017-09-23T09:46:15.002Z,65.70
2017-09-23T09:48:43.347Z,59.57
2017-09-23T09:51:11.640Z,57.33
2017-09-23T09:53:39.949Z,50.80
2017-09-23T09:56:08.262Z,52.20
2017-09-23T09:58:36.573Z,56.10
2017-09-23T10:01:04.919Z,50.07
2017-09-23T10:03:33.206Z,52.00
2017-09-23T10:06:01.520Z,47.37
2017-09-23T19:09:00.945Z,234.47
2017-09-23T19:11:29.282Z,228.93
2017-09-23T19:13:58.364Z,230.43
2017-09-23T19:16:26.762Z,211.03
2017-09-23T19:18:55.177Z,220.83
2017-09-23T19:21:23.570Z,217.37
2017-09-23T19:23:52.449Z,236.30
2017-09-23T19:26:20.946Z,242.13
2017-09-23T19:28:50.106Z,236.77
2017-09-23T19:31:18.450Z,213.60
2017-09-23T19:33:47.739Z,224.17
2017-09-23T19:36:16.096Z,212.60
2017-09-23T19:38:45.235Z,212.83
2017-09-23T19:41:13.614Z,209.53
2017-09-23T19:43:42.812Z,213.83
2017-09-23T19:46:11.188Z,231.87
2017-09-23T19:48:39.567Z,219.80
2017-09-23T19:51:07.971Z,212.97
2017-09-23T19:53:36.491Z,216.80
2017-09-23T19:56:04.882Z,245.50
2017-09-23T19:58:33.305Z,224.40
2017-09-23T20:01:01.660Z,233.93
2017-09-23T20:03:30.023Z,228.27
2017-09-23T20:05:58.424Z,207.87
2017-09-23T20:08:26.824Z,216.90
2017-09-23T20:10:55.229Z,203.00
2017-09-23T20:13:23.629Z,200.57
2017-09-23T20:15:52.036Z,206.77
2017-09-23T20:18:21.377Z,201.50
2017-09-23T20:20:49.749Z,205.37
2017-09-23T20:23:18.438Z,194.50
2017-09-23T20:25:46.830Z,200.67
2017-09-23T20:28:15.228Z,207.47
2017-09-23T20:30:43.634Z,218.93
2017-09-23T20:33:12.025Z,215.10
2017-09-23T20:35:40.387Z,216.40
2017-09-23T20:38:08.821Z,237.73
2017-09-23T20:40:37.214Z,275.57
2017-09-23T20:43:05.681Z,275.37
2017-09-23T20:45:34.000Z,254.77
2017-09-23T20:48:02.313Z,268.97
2017-09-23T20:50:31.105Z,264.00
2017-09-23T20:52:59.562Z,271.00
2017-09-23T20:55:27.876Z,292.67
2017-09-23T20:57:56.194Z,295.37
2017-09-23T21:00:25.410Z,308.27
2017-09-23T21:02:53.708Z,311.47
2017-09-23T21:05:22.029Z,377.13
2017-09-23T21:07:51.108Z,333.87
2017-09-23T21:10:19.419Z,307.23
2017-09-23T21:12:47.729Z,281.40
2017-09-23T21:15:16.817Z,288.87
2017-09-23T21:17:45.130Z,283.23
2017-09-23T21:23:13.185Z,248.60
2017-09-23T21:25:41.483Z,295.23
2017-09-23T21:28:09.801Z,306.77
2017-09-23T21:30:38.121Z,265.23
2017-09-23T21:33:07.203Z,247.60
2017-09-23T21:35:35.661Z,287.63
2017-09-23T21:38:03.983Z,335.43
2017-09-23T21:40:32.310Z,305.60
2017-09-23T21:43:00.620Z,281.47
2017-09-23T21:45:28.935Z,251.87
2017-09-23T21:47:57.259Z,250.63
2017-09-23T21:50:26.335Z,245.37
2017-09-23T21:52:54.938Z,233.30
2017-09-23T21:55:23.260Z,208.97
2017-09-23T22:00:30.897Z,252.17
2017-09-23T22:03:13.954Z,231.13
2017-09-23T22:05:42.261Z,194.40
2017-09-23T22:08:10.568Z,203.53
2017-09-23T22:10:39.181Z,189.23
2017-09-23T22:13:07.496Z,193.67
2017-09-23T22:15:35.833Z,238.13
2017-09-23T22:18:04.146Z,251.77
2017-09-23T22:20:32.648Z,239.20
2017-09-23T22:23:00.977Z,234.90
2017-09-23T22:25:29.280Z,230.63
2017-09-23T22:27:57.590Z,234.83
2017-09-23T22:30:26.656Z,237.77
2017-09-23T22:32:55.079Z,272.47
2017-09-23T22:35:23.595Z,283.33
2017-09-23T22:37:51.920Z,249.00
2017-09-23T22:40:20.230Z,231.27
2017-09-23T22:42:48.526Z,235.53
2017-09-23T22:45:16.851Z,252.20
2017-09-23T22:47:45.154Z,209.93
2017-09-23T22:50:13.587Z,225.47
2017-09-23T22:52:41.898Z,224.17
2017-09-23T22:55:10.212Z,198.47
2017-09-23T22:57:38.534Z,222.30
2017-09-23T23:00:06.850Z,184.30
2017-09-23T23:02:35.138Z,226.00
2017-09-23T23:05:03.432Z,253.20
2017-09-23T23:07:31.721Z,242.00
2017-09-23T23:10:00.014Z,227.77
2017-09-23T23:12:29.071Z,221.80
2017-09-23T23:14:57.365Z,241.33
2017-09-23T23:17:25.779Z,216.40
2017-09-23T23:19:54.078Z,231.90
2017-09-23T23:22:23.137Z,237.83
2017-09-23T23:24:52.204Z,222.80
2017-09-23T23:27:21.593Z,243.80
2017-09-23T23:29:49.955Z,266.07
2017-09-23T23:32:19.166Z,253.87
2017-09-23T23:34:47.451Z,235.53
2017-09-23T23:37:15.761Z,278.33
2017-09-23T23:39:45.779Z,246.30
2017-09-23T23:42:14.262Z,244.77
2017-09-23T23:44:43.459Z,246.50
2017-09-23T23:47:11.771Z,237.17
2017-09-23T23:49:40.061Z,271.13
2017-09-23T23:52:08.365Z,252.00
2017-09-23T23:54:36.669Z,280.83
2017-09-23T23:57:04.953Z,264.30
2017-09-23T23:59:33.249Z,312.97
